createdAt,value
2023-04-12T00:00:30.232Z,9.90
2023-04-12T00:01:30.255Z,9.85
2023-04-12T00:02:30.396Z,9.85
2023-04-12T00:03:30.432Z,9.85
2023-04-12T00:04:30.554Z,9.82
2023-04-12T00:05:30.347Z,9.90
2023-04-12T00:06:30.371Z,9.84
2023-04-12T00:07:30.403Z,9.80
2023-04-12T00:08:30.425Z,9.85
2023-04-12T00:09:30.457Z,9.78
2023-04-12T00:10:30.475Z,9.82
2023-04-12T00:11:30.526Z,9.70
2023-04-12T00:12:30.548Z,9.75
2023-04-12T00:13:30.572Z,9.71
2023-04-12T00:14:30.588Z,9.74
2023-04-12T00:15:30.632Z,9.71
2023-04-12T00:16:30.737Z,9.72
2023-04-12T00:17:30.746Z,9.64
2023-04-12T00:18:30.683Z,9.57
2023-04-12T00:19:30.712Z,9.60
2023-04-12T00:20:30.756Z,9.62
2023-04-12T00:21:30.766Z,9.59
2023-04-12T00:22:31.036Z,9.62
2023-04-12T00:23:30.814Z,9.48
2023-04-12T00:24:30.855Z,9.48
2023-04-12T00:25:30.868Z,9.50
2023-04-12T00:26:30.895Z,9.52
2023-04-12T00:27:30.945Z,9.50
2023-04-12T00:28:30.944Z,9.53
2023-04-12T00:29:30.976Z,9.50
2023-04-12T00:30:30.995Z,9.52
2023-04-12T00:31:31.059Z,9.52
2023-04-12T00:32:31.081Z,9.56
2023-04-12T00:33:31.072Z,9.48
2023-04-12T00:34:31.093Z,9.55
2023-04-12T00:35:31.176Z,9.53
2023-04-12T00:36:31.147Z,9.64
2023-04-12T00:37:31.177Z,9.66
2023-04-12T00:38:31.198Z,9.57
2023-04-12T00:39:31.226Z,9.74
2023-04-12T00:40:31.252Z,9.72
2023-04-12T00:41:31.278Z,9.72
2023-04-12T00:42:31.304Z,9.63
2023-04-12T00:43:31.367Z,9.67
2023-04-12T00:44:31.354Z,9.66
2023-04-12T00:45:31.382Z,9.57
2023-04-12T00:46:31.427Z,9.55
2023-04-12T00:47:31.455Z,9.62
2023-04-12T00:48:31.470Z,9.57
2023-04-12T00:49:31.487Z,9.56
2023-04-12T00:50:31.507Z,9.48
2023-04-12T00:51:31.536Z,9.56
2023-04-12T00:52:31.561Z,9.50
2023-04-12T00:53:31.588Z,9.47
2023-04-12T00:54:31.610Z,9.55
2023-04-12T00:55:31.638Z,9.44
2023-04-12T00:56:31.662Z,9.48
2023-04-12T00:57:31.695Z,9.47
2023-04-12T00:58:31.719Z,9.48
2023-04-12T00:59:31.769Z,9.52
2023-04-12T01:00:31.780Z,9.45
2023-04-12T01:01:31.808Z,9.47
2023-04-12T01:02:31.925Z,9.47
2023-04-12T01:03:32.048Z,9.52
2023-04-12T01:04:31.865Z,9.44
2023-04-12T01:05:32.092Z,9.47
2023-04-12T01:06:31.916Z,9.42
2023-04-12T01:07:31.942Z,9.32
2023-04-12T01:08:31.966Z,9.38
2023-04-12T01:09:31.994Z,9.30
2023-04-12T01:10:32.021Z,9.37
2023-04-12T01:11:32.071Z,9.35
2023-04-12T01:12:32.069Z,9.37
2023-04-12T01:13:32.098Z,9.32
2023-04-12T01:14:32.116Z,9.32
2023-04-12T01:15:32.171Z,9.34
2023-04-12T01:16:32.281Z,9.34
2023-04-12T01:17:32.274Z,9.30
2023-04-12T01:18:32.221Z,9.29
2023-04-12T01:19:32.247Z,9.30
2023-04-12T01:20:32.479Z,9.29
2023-04-12T01:21:32.303Z,9.27
2023-04-12T01:22:32.321Z,9.26
2023-04-12T01:23:32.359Z,9.32
2023-04-12T01:24:32.372Z,9.26
2023-04-12T01:25:32.467Z,9.24
2023-04-12T01:26:32.466Z,9.20
2023-04-12T01:27:32.450Z,9.27
2023-04-12T01:28:32.474Z,9.20
2023-04-12T01:29:32.502Z,9.19
2023-04-12T01:30:32.534Z,9.27
2023-04-12T01:31:32.604Z,9.27
2023-04-12T01:32:32.607Z,9.24
2023-04-12T01:33:32.605Z,9.14
2023-04-12T01:34:32.661Z,9.16
2023-04-12T01:35:34.597Z,9.30
2023-04-12T01:36:32.684Z,9.26
2023-04-12T01:37:32.705Z,9.27
2023-04-12T01:38:32.728Z,9.24
2023-04-12T01:39:32.762Z,9.27
2023-04-12T01:40:32.780Z,9.20
2023-04-12T01:41:32.809Z,9.11
2023-04-12T01:42:32.835Z,9.17
2023-04-12T01:43:32.858Z,9.14
2023-04-12T01:44:32.884Z,9.11
2023-04-12T01:45:32.919Z,9.19
2023-04-12T01:46:32.941Z,9.19
2023-04-12T01:47:32.980Z,9.12
2023-04-12T01:48:32.985Z,9.14
2023-04-12T01:49:33.021Z,9.16
2023-04-12T01:50:33.284Z,9.04
2023-04-12T01:51:33.064Z,9.05
2023-04-12T01:52:33.085Z,9.09
2023-04-12T01:53:33.113Z,9.08
2023-04-12T01:54:33.136Z,9.12
2023-04-12T01:55:33.164Z,9.11
2023-04-12T01:56:33.192Z,9.08
2023-04-12T01:57:33.216Z,9.01
2023-04-12T01:58:33.239Z,9.09
2023-04-12T01:59:33.271Z,9.05
2023-04-12T02:00:33.291Z,9.08
2023-04-12T02:01:33.477Z,9.03
2023-04-12T02:02:33.465Z,9.00
2023-04-12T02:03:33.446Z,8.98
2023-04-12T02:04:33.402Z,9.01
2023-04-12T02:05:33.417Z,8.98
2023-04-12T02:06:33.447Z,9.03
2023-04-12T02:07:33.477Z,8.97
2023-04-12T02:08:33.490Z,8.94
2023-04-12T02:09:33.523Z,8.94
2023-04-12T02:10:33.542Z,8.98
2023-04-12T02:11:33.572Z,9.01
2023-04-12T02:12:33.596Z,8.98
2023-04-12T02:13:33.617Z,8.97
2023-04-12T02:14:33.673Z,8.94
2023-04-12T02:15:33.664Z,8.89
2023-04-12T02:16:33.716Z,8.89
2023-04-12T02:17:33.786Z,8.87
2023-04-12T02:18:33.739Z,8.80
2023-04-12T02:19:33.788Z,8.92
2023-04-12T02:20:33.787Z,8.87
2023-04-12T02:21:33.818Z,8.85
2023-04-12T02:22:33.838Z,8.76
2023-04-12T02:23:33.862Z,8.79
2023-04-12T02:24:33.892Z,8.82
2023-04-12T02:25:33.916Z,8.82
2023-04-12T02:26:33.941Z,8.83
2023-04-12T02:27:33.966Z,8.79
2023-04-12T02:28:33.991Z,8.79
2023-04-12T02:29:34.021Z,8.82
2023-04-12T02:30:34.055Z,8.79
2023-04-12T02:31:34.066Z,8.80
2023-04-12T02:32:34.124Z,8.80
2023-04-12T02:33:34.116Z,8.80
2023-04-12T02:34:34.213Z,8.71
2023-04-12T02:35:34.216Z,8.72
2023-04-12T02:36:34.190Z,8.80
2023-04-12T02:37:34.215Z,8.72
2023-04-12T02:38:34.241Z,8.72
2023-04-12T02:39:34.269Z,8.72
2023-04-12T02:40:34.296Z,8.69
2023-04-12T02:41:34.320Z,8.69
2023-04-12T02:42:34.359Z,8.69
2023-04-12T02:43:34.369Z,8.77
2023-04-12T02:44:34.391Z,8.80
2023-04-12T02:45:34.415Z,8.79
2023-04-12T02:46:34.522Z,8.79
2023-04-12T02:47:34.521Z,8.60
2023-04-12T02:48:34.488Z,8.67
2023-04-12T02:49:34.515Z,8.76
2023-04-12T02:50:34.539Z,8.67
2023-04-12T02:51:34.583Z,8.76
2023-04-12T02:52:34.589Z,8.80
2023-04-12T02:53:34.616Z,8.76
2023-04-12T02:54:34.646Z,8.67
2023-04-12T02:55:34.674Z,8.69
2023-04-12T02:56:34.693Z,8.69
2023-04-12T02:57:34.722Z,8.64
2023-04-12T02:58:34.739Z,8.64
2023-04-12T02:59:34.770Z,8.61
2023-04-12T03:00:34.789Z,8.57
2023-04-12T03:01:34.875Z,8.68
2023-04-12T03:02:34.916Z,8.64
2023-04-12T03:03:34.996Z,8.69
2023-04-12T03:04:34.887Z,8.69
2023-04-12T03:05:34.914Z,8.72
2023-04-12T03:06:34.936Z,8.64
2023-04-12T03:07:34.981Z,8.68
2023-04-12T03:08:34.988Z,8.65
2023-04-12T03:09:35.055Z,8.60
2023-04-12T03:10:35.040Z,8.54
2023-04-12T03:11:35.061Z,8.61
2023-04-12T03:12:35.087Z,8.64
2023-04-12T03:13:35.120Z,8.58
2023-04-12T03:14:35.138Z,8.62
2023-04-12T03:15:35.226Z,8.61
2023-04-12T03:16:35.183Z,8.60
2023-04-12T03:17:35.242Z,8.64
2023-04-12T03:18:35.241Z,8.65
2023-04-12T03:19:35.276Z,8.62
2023-04-12T03:20:35.296Z,8.61
2023-04-12T03:21:35.313Z,8.61
2023-04-12T03:22:35.336Z,8.60
2023-04-12T03:23:35.390Z,8.49
2023-04-12T03:24:35.383Z,8.54
2023-04-12T03:25:35.410Z,8.46
2023-04-12T03:26:35.454Z,8.50
2023-04-12T03:27:35.463Z,8.58
2023-04-12T03:28:35.489Z,8.46
2023-04-12T03:29:35.508Z,8.47
2023-04-12T03:30:35.532Z,8.49
2023-04-12T03:31:35.722Z,8.50
2023-04-12T03:32:35.645Z,8.46
2023-04-12T03:33:35.606Z,8.52
2023-04-12T03:34:35.631Z,8.49
2023-04-12T03:35:35.678Z,8.58
2023-04-12T03:36:35.686Z,8.53
2023-04-12T03:37:35.820Z,8.50
2023-04-12T03:38:35.734Z,8.57
2023-04-12T03:39:35.775Z,8.49
2023-04-12T03:40:35.788Z,8.57
2023-04-12T03:41:35.941Z,8.57
2023-04-12T03:42:35.833Z,8.52
2023-04-12T03:43:35.856Z,8.53
2023-04-12T03:44:35.877Z,8.53
2023-04-12T03:45:35.905Z,8.53
2023-04-12T03:46:35.962Z,8.54
2023-04-12T03:47:35.967Z,8.47
2023-04-12T03:48:35.978Z,8.49
2023-04-12T03:49:36.009Z,8.52
2023-04-12T03:50:36.029Z,8.46
2023-04-12T03:51:36.055Z,8.49
2023-04-12T03:52:36.079Z,8.44
2023-04-12T03:53:36.105Z,8.47
2023-04-12T03:54:36.128Z,8.44
2023-04-12T03:55:36.225Z,8.46
2023-04-12T03:56:36.182Z,8.46
2023-04-12T03:57:36.200Z,8.46
2023-04-12T03:58:36.250Z,8.50
2023-04-12T03:59:36.250Z,8.52
2023-04-12T04:00:36.274Z,8.43
2023-04-12T04:01:36.303Z,8.43
2023-04-12T04:02:36.455Z,8.49
2023-04-12T04:03:36.526Z,8.50
2023-04-12T04:04:36.406Z,8.43
2023-04-12T04:05:36.399Z,8.49
2023-04-12T04:06:36.430Z,8.40
2023-04-12T04:07:36.441Z,8.46
2023-04-12T04:08:36.469Z,8.42
2023-04-12T04:09:36.494Z,8.43
2023-04-12T04:10:36.521Z,8.42
2023-04-12T04:11:36.607Z,8.53
2023-04-12T04:12:36.574Z,8.43
2023-04-12T04:13:36.594Z,8.43
2023-04-12T04:14:36.616Z,8.43
2023-04-12T04:15:36.641Z,8.47
2023-04-12T04:16:36.695Z,8.49
2023-04-12T04:17:37.016Z,8.50
2023-04-12T04:18:36.716Z,8.40
2023-04-12T04:19:36.742Z,8.40
2023-04-12T04:20:36.769Z,8.53
2023-04-12T04:21:36.789Z,8.43
2023-04-12T04:22:36.825Z,8.43
2023-04-12T04:23:36.837Z,8.46
2023-04-12T04:24:36.864Z,8.47
2023-04-12T04:25:36.887Z,8.44
2023-04-12T04:26:36.913Z,8.43
2023-04-12T04:27:36.957Z,8.52
2023-04-12T04:28:36.965Z,8.52
2023-04-12T04:29:37.002Z,8.43
2023-04-12T04:30:37.014Z,8.44
2023-04-12T04:31:37.074Z,8.46
2023-04-12T04:32:37.153Z,8.42
2023-04-12T04:33:37.092Z,8.46
2023-04-12T04:34:37.121Z,8.46
2023-04-12T04:35:37.184Z,8.50
2023-04-12T04:36:37.163Z,8.52
2023-04-12T04:37:37.208Z,8.52
2023-04-12T04:38:37.223Z,8.52
2023-04-12T04:39:37.241Z,8.46
2023-04-12T04:40:37.268Z,8.52
2023-04-12T04:41:37.290Z,8.50
2023-04-12T04:42:37.315Z,8.54
2023-04-12T04:43:37.357Z,8.44
2023-04-12T04:44:37.364Z,8.54
2023-04-12T04:45:37.428Z,8.57
2023-04-12T04:46:37.413Z,8.50
2023-04-12T04:47:37.457Z,8.44
2023-04-12T04:48:37.465Z,8.53
2023-04-12T04:49:37.489Z,8.53
2023-04-12T04:50:37.519Z,8.47
2023-04-12T04:51:37.539Z,8.50
2023-04-12T04:52:37.585Z,8.54
2023-04-12T04:53:37.589Z,8.50
2023-04-12T04:54:37.616Z,8.52
2023-04-12T04:55:37.642Z,8.54
2023-04-12T04:56:37.666Z,8.57
2023-04-12T04:57:37.689Z,8.47
2023-04-12T04:58:37.715Z,8.53
2023-04-12T04:59:37.757Z,8.60
2023-04-12T05:00:37.803Z,8.60
2023-04-12T05:01:37.920Z,8.57
2023-04-12T05:02:37.937Z,8.65
2023-04-12T05:03:38.011Z,8.60
2023-04-12T05:04:37.871Z,8.57
2023-04-12T05:05:37.894Z,8.60
2023-04-12T05:06:37.910Z,8.54
2023-04-12T05:07:37.932Z,8.65
2023-04-12T05:08:37.962Z,8.65
2023-04-12T05:09:37.992Z,8.65
2023-04-12T05:10:38.009Z,8.62
2023-04-12T05:11:38.036Z,8.67
2023-04-12T05:12:38.058Z,8.65
2023-04-12T05:13:38.088Z,8.67
2023-04-12T05:14:47.369Z,8.65
2023-04-12T05:15:38.162Z,8.64
2023-04-12T05:16:38.205Z,8.69
2023-04-12T05:17:38.272Z,8.61
2023-04-12T05:18:38.217Z,8.61
2023-04-12T05:19:38.232Z,8.64
2023-04-12T05:20:38.253Z,8.60
2023-04-12T05:21:38.279Z,8.65
2023-04-12T05:22:38.309Z,8.61
2023-04-12T05:23:38.344Z,8.62
2023-04-12T05:24:38.361Z,8.67
2023-04-12T05:25:38.385Z,8.69
2023-04-12T05:26:38.408Z,8.62
2023-04-12T05:27:38.428Z,8.69
2023-04-12T05:28:38.452Z,8.68
2023-04-12T05:29:38.479Z,8.71
2023-04-12T05:30:38.530Z,8.67
2023-04-12T05:31:38.590Z,8.64
2023-04-12T05:32:38.621Z,8.64
2023-04-12T05:33:38.582Z,8.71
2023-04-12T05:34:38.603Z,8.68
2023-04-12T05:35:38.658Z,8.67
2023-04-12T05:36:38.660Z,8.64
2023-04-12T05:37:38.689Z,8.65
2023-04-12T05:38:38.706Z,8.68
2023-04-12T05:39:38.732Z,8.67
2023-04-12T05:40:38.756Z,8.69
2023-04-12T05:41:38.780Z,8.67
2023-04-12T05:42:38.811Z,8.69
2023-04-12T05:43:38.829Z,8.61
2023-04-12T05:44:38.862Z,8.68
2023-04-12T05:45:38.880Z,8.64
2023-04-12T05:46:38.984Z,8.74
2023-04-12T05:47:39.145Z,8.71
2023-04-12T05:48:38.954Z,8.64
2023-04-12T05:49:38.977Z,8.65
2023-04-12T05:50:39.001Z,8.65
2023-04-12T05:51:41.684Z,8.68
2023-04-12T05:52:39.053Z,8.68
2023-04-12T05:53:39.081Z,8.72
2023-04-12T05:54:39.112Z,8.64
2023-04-12T05:55:39.127Z,8.58
2023-04-12T05:56:39.160Z,8.71
2023-04-12T05:57:39.190Z,8.68
2023-04-12T05:58:39.213Z,8.67
2023-04-12T05:59:39.235Z,8.65
2023-04-12T06:00:39.261Z,8.74
2023-04-12T06:01:39.310Z,8.64
2023-04-12T06:02:39.439Z,8.68
2023-04-12T06:03:39.647Z,8.65
2023-04-12T06:04:49.998Z,8.77
2023-04-12T06:05:39.576Z,8.69
2023-04-12T06:06:39.406Z,8.65
2023-04-12T06:07:39.435Z,8.61
2023-04-12T06:08:39.465Z,8.61
2023-04-12T06:09:39.479Z,8.76
2023-04-12T06:10:39.505Z,8.74
2023-04-12T06:11:39.528Z,8.80
2023-04-12T06:12:39.555Z,8.79
2023-04-12T06:13:39.579Z,8.71
2023-04-12T06:14:39.619Z,8.68
2023-04-12T06:15:39.658Z,8.67
2023-04-12T06:16:41.820Z,8.72
2023-04-12T06:17:39.701Z,8.79
2023-04-12T06:18:39.710Z,8.68
2023-04-12T06:19:39.746Z,8.76
2023-04-12T06:20:39.755Z,8.72
2023-04-12T06:21:39.787Z,8.69
2023-04-12T06:22:39.805Z,8.69
2023-04-12T06:23:39.831Z,8.72
2023-04-12T06:24:39.855Z,8.79
2023-04-12T06:25:39.881Z,8.77
2023-04-12T06:26:40.415Z,8.82
2023-04-12T06:27:39.933Z,8.80
2023-04-12T06:28:39.956Z,8.82
2023-04-12T06:29:39.978Z,8.82
2023-04-12T06:30:40.010Z,8.83
2023-04-12T06:31:40.092Z,8.83
2023-04-12T06:32:40.069Z,8.80
2023-04-12T06:33:40.072Z,8.80
2023-04-12T06:34:40.096Z,8.82
2023-04-12T06:35:40.182Z,8.80
2023-04-12T06:36:40.179Z,8.83
2023-04-12T06:37:40.171Z,8.85
2023-04-12T06:38:40.205Z,8.89
2023-04-12T06:39:40.216Z,8.89
2023-04-12T06:40:40.245Z,8.94
2023-04-12T06:41:40.268Z,8.92
2023-04-12T06:42:40.447Z,8.92
2023-04-12T06:43:40.339Z,8.85
2023-04-12T06:44:40.349Z,8.90
2023-04-12T06:45:40.368Z,8.92
2023-04-12T06:46:40.409Z,8.97
2023-04-12T06:47:40.455Z,8.98
2023-04-12T06:48:41.346Z,8.97
2023-04-12T06:49:40.469Z,9.01
2023-04-12T06:50:40.490Z,8.95
2023-04-12T06:51:40.595Z,8.97
2023-04-12T06:52:40.541Z,8.98
2023-04-12T06:53:40.570Z,8.95
2023-04-12T06:54:40.592Z,8.97
2023-04-12T06:55:40.624Z,8.98
2023-04-12T06:56:40.642Z,9.04
2023-04-12T06:57:40.669Z,9.04
2023-04-12T06:58:40.689Z,9.03
2023-04-12T06:59:40.714Z,9.00
2023-04-12T07:00:40.989Z,9.14
2023-04-12T07:01:41.920Z,9.16
2023-04-12T07:02:40.947Z,9.24
2023-04-12T07:03:40.898Z,9.34
2023-04-12T07:04:40.864Z,9.32
2023-04-12T07:05:40.868Z,9.34
2023-04-12T07:06:40.896Z,9.37
2023-04-12T07:07:40.961Z,9.32
2023-04-12T07:08:40.950Z,9.26
2023-04-12T07:09:40.969Z,9.27
2023-04-12T07:10:41.006Z,9.30
2023-04-12T07:11:41.026Z,9.37
2023-04-12T07:12:41.047Z,9.39
2023-04-12T07:13:41.069Z,9.39
2023-04-12T07:14:42.405Z,9.29
2023-04-12T07:15:41.118Z,9.45
2023-04-12T07:16:41.207Z,9.44
2023-04-12T07:17:41.204Z,9.38
2023-04-12T07:18:41.195Z,9.41
2023-04-12T07:19:41.222Z,9.42
2023-04-12T07:20:41.249Z,9.48
2023-04-12T07:21:41.273Z,9.47
2023-04-12T07:22:41.306Z,9.50
2023-04-12T07:23:41.406Z,9.55
2023-04-12T07:24:41.349Z,9.62
2023-04-12T07:25:41.383Z,9.48
2023-04-12T07:26:41.407Z,9.59
2023-04-12T07:27:41.425Z,9.48
2023-04-12T07:28:41.457Z,9.50
2023-04-12T07:29:41.477Z,9.50
2023-04-12T07:30:41.501Z,9.55
2023-04-12T07:31:41.544Z,9.52
2023-04-12T07:32:41.638Z,9.53
2023-04-12T07:33:43.365Z,9.52
2023-04-12T07:34:41.671Z,9.57
2023-04-12T07:35:41.665Z,9.62
2023-04-12T07:36:41.655Z,9.57
2023-04-12T07:37:41.682Z,9.60
2023-04-12T07:38:41.708Z,9.64
2023-04-12T07:39:41.873Z,9.60
2023-04-12T07:40:41.760Z,9.64
2023-04-12T07:41:41.787Z,9.62
2023-04-12T07:42:41.809Z,9.63
2023-04-12T07:43:41.835Z,9.63
2023-04-12T07:44:41.860Z,9.56
2023-04-12T07:45:41.916Z,9.64
2023-04-12T07:46:42.720Z,9.64
2023-04-12T07:47:41.961Z,9.63
2023-04-12T07:48:41.963Z,9.72
2023-04-12T07:49:41.989Z,9.77
2023-04-12T07:50:42.013Z,9.74
2023-04-12T07:51:42.037Z,9.89
2023-04-12T07:52:42.088Z,9.71
2023-04-12T07:53:42.114Z,9.77
2023-04-12T07:54:42.120Z,9.89
2023-04-12T07:55:42.173Z,9.84
2023-04-12T07:56:42.174Z,9.88
2023-04-12T07:57:42.193Z,9.90
2023-04-12T07:58:42.220Z,10.00
2023-04-12T07:59:42.248Z,9.93
2023-04-12T08:00:42.270Z,9.98
2023-04-12T08:01:42.322Z,9.98
2023-04-12T08:02:42.374Z,9.99
2023-04-12T08:03:42.537Z,9.92
2023-04-12T08:04:42.375Z,9.85
2023-04-12T08:05:42.448Z,9.90
2023-04-12T08:06:42.428Z,9.82
2023-04-12T08:07:42.452Z,9.85
2023-04-12T08:08:42.496Z,9.84
2023-04-12T08:09:42.501Z,9.88
2023-04-12T08:10:42.527Z,9.84
2023-04-12T08:11:42.604Z,9.88
2023-04-12T08:12:42.582Z,9.92
2023-04-12T08:13:42.605Z,9.95
2023-04-12T08:14:42.636Z,9.98
2023-04-12T08:15:42.682Z,9.96
2023-04-12T08:16:42.686Z,9.95
2023-04-12T08:17:42.751Z,9.98
2023-04-12T08:18:42.745Z,9.96
2023-04-12T08:19:42.763Z,10.00
2023-04-12T08:20:42.792Z,10.00
2023-04-12T08:21:42.813Z,10.10
2023-04-12T08:22:42.840Z,10.18
2023-04-12T08:23:42.868Z,10.29
2023-04-12T08:24:42.889Z,10.28
2023-04-12T08:25:42.919Z,10.26
2023-04-12T08:26:42.950Z,10.15
2023-04-12T08:27:43.004Z,10.25
2023-04-12T08:28:42.991Z,10.18
2023-04-12T08:29:43.032Z,10.33
2023-04-12T08:30:43.042Z,10.38
2023-04-12T08:31:43.215Z,10.36
2023-04-12T08:32:43.122Z,10.32
2023-04-12T08:33:43.125Z,10.39
2023-04-12T08:34:44.837Z,10.51
2023-04-12T08:35:43.204Z,10.51
2023-04-12T08:36:43.199Z,10.67
2023-04-12T08:37:43.229Z,10.73
2023-04-12T08:38:46.038Z,10.77
2023-04-12T08:39:43.280Z,10.90
2023-04-12T08:40:43.312Z,10.91
2023-04-12T08:41:43.336Z,10.88
2023-04-12T08:42:43.383Z,10.90
2023-04-12T08:43:43.413Z,10.90
2023-04-12T08:44:43.409Z,10.80
2023-04-12T08:45:43.439Z,10.87
2023-04-12T08:46:43.512Z,10.88
2023-04-12T08:47:43.528Z,10.85
2023-04-12T08:48:43.527Z,10.87
2023-04-12T08:49:43.543Z,10.92
2023-04-12T08:50:43.570Z,10.70
2023-04-12T08:51:43.596Z,10.65
2023-04-12T08:52:43.621Z,10.58
2023-04-12T08:53:43.663Z,10.67
2023-04-12T08:54:43.677Z,10.75
2023-04-12T08:55:43.710Z,10.77
2023-04-12T08:56:43.737Z,10.80
2023-04-12T08:57:43.762Z,10.90
2023-04-12T08:58:43.787Z,10.91
2023-04-12T08:59:43.839Z,11.02
2023-04-12T09:00:43.833Z,10.79
2023-04-12T09:01:43.904Z,10.88
2023-04-12T09:02:44.118Z,10.92
2023-04-12T09:03:44.152Z,10.90
2023-04-12T09:04:43.981Z,10.94
2023-04-12T09:05:43.995Z,10.97
2023-04-12T09:06:43.994Z,11.00
2023-04-12T09:07:44.028Z,11.18
2023-04-12T09:08:44.049Z,11.20
2023-04-12T09:09:44.099Z,11.38
2023-04-12T09:10:44.100Z,11.31
2023-04-12T09:11:44.126Z,11.42
2023-04-12T09:12:44.155Z,11.31
2023-04-12T09:13:44.194Z,11.23
2023-04-12T09:14:44.210Z,11.28
2023-04-12T09:15:44.321Z,11.21
2023-04-12T09:16:44.312Z,11.21
2023-04-12T09:17:44.347Z,11.24
2023-04-12T09:18:44.315Z,11.39
2023-04-12T09:19:44.341Z,11.41
2023-04-12T09:20:44.372Z,11.27
2023-04-12T09:21:44.404Z,11.28
2023-04-12T09:22:44.519Z,11.30
2023-04-12T09:23:44.459Z,11.33
2023-04-12T09:24:44.578Z,11.24
2023-04-12T09:25:44.517Z,11.23
2023-04-12T09:26:44.537Z,11.13
2023-04-12T09:27:44.556Z,11.15
2023-04-12T09:28:44.597Z,11.23
2023-04-12T09:29:44.627Z,11.16
2023-04-12T09:30:44.648Z,11.26
2023-04-12T09:31:44.740Z,11.38
2023-04-12T09:32:44.773Z,11.26
2023-04-12T09:33:44.718Z,11.30
2023-04-12T09:34:44.741Z,11.27
2023-04-12T09:35:44.924Z,11.28
2023-04-12T09:36:44.796Z,11.38
2023-04-12T09:37:44.844Z,11.33
2023-04-12T09:38:44.918Z,11.38
2023-04-12T09:39:44.899Z,11.41
2023-04-12T09:40:44.910Z,11.41
2023-04-12T09:41:44.936Z,11.46
2023-04-12T09:42:44.957Z,11.42
2023-04-12T09:43:45.000Z,11.43
2023-04-12T09:44:45.013Z,11.39
2023-04-12T09:45:45.101Z,11.48
2023-04-12T09:46:47.662Z,11.33
2023-04-12T09:47:45.220Z,11.41
2023-04-12T09:48:45.119Z,11.26
2023-04-12T09:49:45.195Z,11.34
2023-04-12T09:50:45.172Z,11.31
2023-04-12T09:51:45.204Z,11.35
2023-04-12T09:52:45.233Z,11.38
2023-04-12T09:53:45.264Z,11.48
2023-04-12T09:54:45.279Z,11.53
2023-04-12T09:55:45.334Z,11.53
2023-04-12T09:56:45.335Z,11.59
2023-04-12T09:57:45.406Z,11.63
2023-04-12T09:58:45.474Z,11.64
2023-04-12T09:59:45.416Z,11.53
2023-04-12T10:00:45.441Z,11.68
2023-04-12T10:01:45.555Z,11.53
2023-04-12T10:02:46.909Z,11.43
2023-04-12T10:03:45.749Z,11.42
2023-04-12T10:04:45.706Z,11.41
2023-04-12T10:05:45.587Z,11.51
2023-04-12T10:06:45.607Z,11.57
2023-04-12T10:07:45.634Z,11.52
2023-04-12T10:08:45.661Z,11.48
2023-04-12T10:09:45.686Z,11.48
2023-04-12T10:10:45.726Z,11.49
2023-04-12T10:11:45.740Z,11.56
2023-04-12T10:12:45.789Z,11.64
2023-04-12T10:13:45.795Z,11.66
2023-04-12T10:14:45.819Z,11.85
2023-04-12T10:15:45.886Z,11.85
2023-04-12T10:16:45.961Z,12.13
2023-04-12T10:17:45.950Z,12.36
2023-04-12T10:18:45.938Z,12.48
2023-04-12T10:19:45.974Z,12.89
2023-04-12T10:20:46.010Z,13.11
2023-04-12T10:21:46.035Z,13.09
2023-04-12T10:22:46.105Z,13.10
2023-04-12T10:23:46.103Z,13.17
2023-04-12T10:24:46.126Z,13.19
2023-04-12T10:25:46.129Z,13.07
2023-04-12T10:26:46.179Z,12.89
2023-04-12T10:27:46.178Z,12.81
2023-04-12T10:28:46.220Z,12.76
2023-04-12T10:29:46.236Z,12.76
2023-04-12T10:30:46.273Z,12.66
2023-04-12T10:31:46.300Z,12.63
2023-04-12T10:32:46.376Z,12.59
2023-04-12T10:33:46.352Z,12.47
2023-04-12T10:34:46.404Z,12.51
2023-04-12T10:35:46.484Z,12.58
2023-04-12T10:36:46.430Z,12.56
2023-04-12T10:37:46.479Z,12.53
2023-04-12T10:38:46.485Z,12.47
2023-04-12T10:39:46.521Z,12.26
2023-04-12T10:40:46.549Z,12.25
2023-04-12T10:41:49.193Z,12.28
2023-04-12T10:42:46.621Z,12.22
2023-04-12T10:43:46.685Z,12.20
2023-04-12T10:44:46.662Z,12.25
2023-04-12T10:45:46.698Z,12.23
2023-04-12T10:46:46.801Z,12.28
2023-04-12T10:47:46.763Z,12.28
2023-04-12T10:48:46.761Z,12.41
2023-04-12T10:49:46.796Z,12.43
2023-04-12T10:50:46.822Z,12.47
2023-04-12T10:51:48.408Z,12.31
2023-04-12T10:52:46.877Z,12.34
2023-04-12T10:53:46.969Z,12.16
2023-04-12T10:54:46.934Z,12.22
2023-04-12T10:55:46.981Z,12.25
2023-04-12T10:56:47.006Z,12.23
2023-04-12T10:57:47.067Z,12.13
2023-04-12T10:58:47.069Z,12.20
2023-04-12T10:59:47.888Z,12.13
2023-04-12T11:00:47.180Z,12.05
2023-04-12T11:01:47.173Z,12.10
2023-04-12T11:02:47.237Z,12.08
2023-04-12T11:03:47.274Z,12.10
2023-04-12T11:04:47.345Z,12.08
2023-04-12T11:05:47.394Z,12.10
2023-04-12T11:06:47.285Z,12.03
2023-04-12T11:07:47.374Z,12.01
2023-04-12T11:08:47.470Z,11.89
2023-04-12T11:09:47.366Z,11.95
2023-04-12T11:10:47.369Z,11.88
2023-04-12T11:11:47.405Z,11.73
2023-04-12T11:12:47.439Z,11.57
2023-04-12T11:13:47.463Z,11.51
2023-04-12T11:14:47.522Z,11.67
2023-04-12T11:15:47.517Z,11.63
2023-04-12T11:16:47.574Z,11.60
2023-04-12T11:17:47.626Z,11.53
2023-04-12T11:18:47.646Z,11.53
2023-04-12T11:19:47.617Z,11.61
2023-04-12T11:20:47.655Z,11.41
2023-04-12T11:21:47.701Z,11.53
2023-04-12T11:22:47.695Z,11.56
2023-04-12T11:23:47.779Z,11.63
2023-04-12T11:24:47.796Z,11.60
2023-04-12T11:25:47.799Z,11.64
2023-04-12T11:26:47.804Z,11.76
2023-04-12T11:27:47.833Z,11.78
2023-04-12T11:28:47.859Z,11.76
2023-04-12T11:29:47.889Z,11.86
2023-04-12T11:30:47.913Z,11.86
2023-04-12T11:31:47.958Z,11.67
2023-04-12T11:32:48.002Z,11.70
2023-04-12T11:33:47.993Z,11.64
2023-04-12T11:34:48.032Z,11.68
2023-04-12T11:35:48.057Z,11.82
2023-04-12T11:36:48.077Z,11.82
2023-04-12T11:37:48.117Z,11.86
2023-04-12T11:38:48.135Z,11.91
2023-04-12T11:39:48.187Z,12.04
2023-04-12T11:40:48.191Z,12.05
2023-04-12T11:41:48.220Z,12.19
2023-04-12T11:42:48.241Z,12.28
2023-04-12T11:43:48.274Z,12.40
2023-04-12T11:44:56.822Z,12.56
2023-04-12T11:45:48.357Z,12.56
2023-04-12T11:46:48.353Z,12.78
2023-04-12T11:47:48.397Z,12.74
2023-04-12T11:48:48.407Z,12.91
2023-04-12T11:49:48.439Z,12.99
2023-04-12T11:50:54.266Z,12.94
2023-04-12T11:51:49.637Z,12.81
2023-04-12T11:52:48.522Z,12.76
2023-04-12T11:53:48.550Z,12.58
2023-04-12T11:54:48.582Z,12.44
2023-04-12T11:55:48.633Z,12.53
2023-04-12T11:56:48.639Z,12.65
2023-04-12T11:57:48.665Z,12.66
2023-04-12T11:58:48.690Z,12.80
2023-04-12T11:59:48.718Z,12.70
2023-04-12T12:00:48.747Z,12.63
2023-04-12T12:01:48.796Z,12.52
2023-04-12T12:03:03.872Z,12.55
2023-04-12T12:03:49.091Z,12.41
2023-04-12T12:04:48.988Z,12.61
2023-04-12T12:05:49.217Z,12.65
2023-04-12T12:06:49.194Z,12.70
2023-04-12T12:07:48.950Z,12.51
2023-04-12T12:08:48.973Z,12.58
2023-04-12T12:09:49.004Z,12.66
2023-04-12T12:11:49.148Z,12.63
2023-04-12T12:12:49.089Z,12.76
2023-04-12T12:13:49.156Z,12.71
2023-04-12T12:14:49.143Z,12.70
2023-04-12T12:15:49.200Z,12.71
2023-04-12T12:16:49.203Z,12.73
2023-04-12T12:17:49.248Z,12.56
2023-04-12T12:18:52.361Z,12.53
2023-04-12T12:19:49.312Z,12.59
2023-04-12T12:20:49.324Z,12.65
2023-04-12T12:21:49.353Z,12.63
2023-04-12T12:22:49.377Z,12.65
2023-04-12T12:23:49.404Z,12.70
2023-04-12T12:24:49.433Z,12.74
2023-04-12T12:25:49.462Z,12.69
2023-04-12T12:26:49.496Z,12.88
2023-04-12T12:27:49.670Z,12.83
2023-04-12T12:28:49.563Z,12.94
2023-04-12T12:29:49.577Z,12.88
2023-04-12T12:30:49.610Z,12.96
2023-04-12T12:31:49.790Z,12.99
2023-04-12T12:32:49.695Z,13.09
2023-04-12T12:33:49.726Z,13.02
2023-04-12T12:34:49.720Z,12.98
2023-04-12T12:35:49.754Z,12.95
2023-04-12T12:36:49.782Z,13.02
2023-04-12T12:37:49.808Z,13.14
2023-04-12T12:38:49.840Z,13.09
2023-04-12T12:39:49.868Z,13.27
2023-04-12T12:40:49.899Z,13.21
2023-04-12T12:41:49.936Z,13.21
2023-04-12T12:42:49.991Z,13.37
2023-04-12T12:43:50.017Z,13.42
2023-04-12T12:44:50.033Z,13.54
2023-04-12T12:45:50.048Z,13.55
2023-04-12T12:46:56.838Z,13.68
2023-04-12T12:47:50.163Z,13.68
2023-04-12T12:48:50.132Z,13.88
2023-04-12T12:50:47.746Z,14.23
2023-04-12T12:51:47.778Z,14.21
2023-04-12T12:52:47.804Z,14.30
2023-04-12T12:53:48.082Z,14.45
2023-04-12T12:54:47.874Z,14.52
2023-04-12T12:55:47.901Z,14.41
2023-04-12T12:56:47.943Z,14.53
2023-04-12T12:57:55.456Z,14.64
2023-04-12T12:58:47.996Z,14.74
2023-04-12T12:59:48.036Z,14.66
2023-04-12T13:00:48.078Z,14.79
2023-04-12T13:01:48.170Z,14.89
2023-04-12T13:02:48.333Z,15.02
2023-04-12T13:03:48.344Z,15.05
2023-04-12T13:04:48.642Z,15.12
2023-04-12T13:05:48.191Z,15.13
2023-04-12T13:06:48.223Z,15.18
2023-04-12T13:07:48.248Z,15.22
2023-04-12T13:08:48.279Z,15.30
2023-04-12T13:09:48.318Z,15.13
2023-04-12T13:10:48.340Z,15.16